sensor_id;sensor_type;location;lat;lon;timestamp;P1;durP1;ratioP1;P2;durP2;ratioP2
1691;SDS011;843;52.054;8.552;2022-10-22T00:00:21;6.20;;;4.53;;
1691;SDS011;843;52.054;8.552;2022-10-22T00:02:49;6.30;;;4.47;;
1691;SDS011;843;52.054;8.552;2022-10-22T00:05:15;10.90;;;5.33;;
1691;SDS011;843;52.054;8.552;2022-10-22T00:07:43;5.33;;;4.80;;
1691;SDS011;843;52.054;8.552;2022-10-22T00:10:10;4.97;;;4.40;;
1691;SDS011;843;52.054;8.552;2022-10-22T00:12:37;5.97;;;5.13;;
1691;SDS011;843;52.054;8.552;2022-10-22T00:15:04;6.77;;;4.63;;
1691;SDS011;843;52.054;8.552;2022-10-22T00:17:31;8.20;;;4.03;;
1691;SDS011;843;52.054;8.552;2022-10-22T00:19:58;7.10;;;5.00;;
1691;SDS011;843;52.054;8.552;2022-10-22T00:22:24;6.40;;;4.70;;
1691;SDS011;843;52.054;8.552;2022-10-22T00:24:52;6.00;;;4.60;;
1691;SDS011;843;52.054;8.552;2022-10-22T00:27:19;10.53;;;5.13;;
1691;SDS011;843;52.054;8.552;2022-10-22T00:29:45;6.30;;;5.40;;
1691;SDS011;843;52.054;8.552;2022-10-22T00:32:12;8.03;;;5.53;;
1691;SDS011;843;52.054;8.552;2022-10-22T00:34:39;6.63;;;5.50;;
1691;SDS011;843;52.054;8.552;2022-10-22T00:37:06;7.97;;;6.07;;
1691;SDS011;843;52.054;8.552;2022-10-22T00:39:32;5.93;;;4.83;;
1691;SDS011;843;52.054;8.552;2022-10-22T00:42:00;5.53;;;4.90;;
1691;SDS011;843;52.054;8.552;2022-10-22T00:47:31;6.40;;;4.70;;
1691;SDS011;843;52.054;8.552;2022-10-22T00:49:59;6.17;;;4.83;;
1691;SDS011;843;52.054;8.552;2022-10-22T00:52:27;6.57;;;4.10;;
1691;SDS011;843;52.054;8.552;2022-10-22T00:54:56;5.33;;;4.60;;
1691;SDS011;843;52.054;8.552;2022-10-22T00:57:30;8.67;;;4.90;;
1691;SDS011;843;52.054;8.552;2022-10-22T00:59:57;5.60;;;4.27;;
1691;SDS011;843;52.054;8.552;2022-10-22T01:02:23;8.57;;;4.73;;
1691;SDS011;843;52.054;8.552;2022-10-22T01:04:50;7.37;;;5.03;;
1691;SDS011;843;52.054;8.552;2022-10-22T01:07:17;6.63;;;5.90;;
1691;SDS011;843;52.054;8.552;2022-10-22T01:09:48;6.80;;;4.80;;
1691;SDS011;843;52.054;8.552;2022-10-22T01:12:20;5.37;;;4.30;;
1691;SDS011;843;52.054;8.552;2022-10-22T01:14:55;7.77;;;4.80;;
1691;SDS011;843;52.054;8.552;2022-10-22T01:17:31;6.10;;;3.97;;
1691;SDS011;843;52.054;8.552;2022-10-22T01:20:04;4.03;;;3.53;;
1691;SDS011;843;52.054;8.552;2022-10-22T01:22:38;4.93;;;3.90;;
1691;SDS011;843;52.054;8.552;2022-10-22T01:25:07;6.00;;;4.47;;
1691;SDS011;843;52.054;8.552;2022-10-22T01:27:38;6.00;;;4.00;;
1691;SDS011;843;52.054;8.552;2022-10-22T01:30:12;7.00;;;3.93;;
1691;SDS011;843;52.054;8.552;2022-10-22T01:32:40;6.10;;;4.10;;
1691;SDS011;843;52.054;8.552;2022-10-22T01:35:11;8.00;;;3.63;;
1691;SDS011;843;52.054;8.552;2022-10-22T01:37:41;20.83;;;4.23;;
1691;SDS011;843;52.054;8.552;2022-10-22T01:40:09;5.00;;;4.03;;
1691;SDS011;843;52.054;8.552;2022-10-22T01:42:37;6.00;;;3.97;;
1691;SDS011;843;52.054;8.552;2022-10-22T01:45:09;4.73;;;4.10;;
1691;SDS011;843;52.054;8.552;2022-10-22T01:47:40;11.20;;;4.13;;
1691;SDS011;843;52.054;8.552;2022-10-22T01:50:21;6.30;;;3.90;;
1691;SDS011;843;52.054;8.552;2022-10-22T01:52:56;6.93;;;3.93;;
1691;SDS011;843;52.054;8.552;2022-10-22T01:55:32;7.27;;;4.23;;
1691;SDS011;843;52.054;8.552;2022-10-22T01:58:07;4.00;;;3.37;;
1691;SDS011;843;52.054;8.552;2022-10-22T02:00:39;7.23;;;3.57;;
1691;SDS011;843;52.054;8.552;2022-10-22T02:03:15;6.77;;;3.27;;
1691;SDS011;843;52.054;8.552;2022-10-22T02:05:45;3.40;;;3.10;;
1691;SDS011;843;52.054;8.552;2022-10-22T02:08:16;5.17;;;3.70;;
1691;SDS011;843;52.054;8.552;2022-10-22T02:10:45;5.77;;;3.90;;
1691;SDS011;843;52.054;8.552;2022-10-22T02:13:13;4.47;;;3.70;;
1691;SDS011;843;52.054;8.552;2022-10-22T02:15:41;7.53;;;4.27;;
1691;SDS011;843;52.054;8.552;2022-10-22T02:18:10;7.37;;;4.47;;
1691;SDS011;843;52.054;8.552;2022-10-22T02:20:39;11.43;;;4.60;;
1691;SDS011;843;52.054;8.552;2022-10-22T02:23:07;4.13;;;3.70;;
1691;SDS011;843;52.054;8.552;2022-10-22T02:25:34;8.73;;;3.93;;
1691;SDS011;843;52.054;8.552;2022-10-22T02:28:03;6.00;;;4.27;;
1691;SDS011;843;52.054;8.552;2022-10-22T02:30:35;6.30;;;4.80;;
1691;SDS011;843;52.054;8.552;2022-10-22T02:33:05;8.10;;;4.50;;
1691;SDS011;843;52.054;8.552;2022-10-22T02:35:34;5.90;;;4.80;;
1691;SDS011;843;52.054;8.552;2022-10-22T02:38:03;6.03;;;4.80;;
1691;SDS011;843;52.054;8.552;2022-10-22T02:40:29;8.70;;;4.80;;
1691;SDS011;843;52.054;8.552;2022-10-22T02:42:56;6.83;;;5.13;;
1691;SDS011;843;52.054;8.552;2022-10-22T02:45:23;6.30;;;5.47;;
1691;SDS011;843;52.054;8.552;2022-10-22T02:47:50;8.07;;;6.50;;
1691;SDS011;843;52.054;8.552;2022-10-22T02:50:17;7.90;;;6.90;;
1691;SDS011;843;52.054;8.552;2022-10-22T02:52:43;10.10;;;5.97;;
1691;SDS011;843;52.054;8.552;2022-10-22T02:55:11;11.47;;;6.70;;
1691;SDS011;843;52.054;8.552;2022-10-22T02:57:38;9.10;;;6.10;;
1691;SDS011;843;52.054;8.552;2022-10-22T03:00:05;8.00;;;6.60;;
1691;SDS011;843;52.054;8.552;2022-10-22T03:02:32;8.90;;;7.53;;
1691;SDS011;843;52.054;8.552;2022-10-22T03:04:59;9.70;;;6.73;;
1691;SDS011;843;52.054;8.552;2022-10-22T03:07:26;10.10;;;7.50;;
1691;SDS011;843;52.054;8.552;2022-10-22T03:09:52;10.33;;;7.97;;
1691;SDS011;843;52.054;8.552;2022-10-22T03:12:20;11.47;;;9.13;;
1691;SDS011;843;52.054;8.552;2022-10-22T03:14:47;8.93;;;8.03;;
1691;SDS011;843;52.054;8.552;2022-10-22T03:17:13;8.33;;;7.50;;
1691;SDS011;843;52.054;8.552;2022-10-22T03:19:40;9.07;;;7.33;;
1691;SDS011;843;52.054;8.552;2022-10-22T03:22:08;8.07;;;7.23;;
1691;SDS011;843;52.054;8.552;2022-10-22T03:24:37;9.57;;;8.60;;
1691;SDS011;843;52.054;8.552;2022-10-22T03:27:05;9.90;;;8.90;;
1691;SDS011;843;52.054;8.552;2022-10-22T03:29:34;10.77;;;7.70;;
1691;SDS011;843;52.054;8.552;2022-10-22T03:32:02;8.77;;;7.50;;
1691;SDS011;843;52.054;8.552;2022-10-22T03:34:28;10.40;;;7.60;;
1691;SDS011;843;52.054;8.552;2022-10-22T03:36:55;9.53;;;7.80;;
1691;SDS011;843;52.054;8.552;2022-10-22T03:39:22;12.60;;;8.10;;
1691;SDS011;843;52.054;8.552;2022-10-22T03:41:49;9.40;;;8.30;;
1691;SDS011;843;52.054;8.552;2022-10-22T03:44:16;15.27;;;8.90;;
1691;SDS011;843;52.054;8.552;2022-10-22T03:46:44;11.23;;;9.57;;
1691;SDS011;843;52.054;8.552;2022-10-22T03:49:11;13.33;;;8.43;;
1691;SDS011;843;52.054;8.552;2022-10-22T03:51:37;12.90;;;8.07;;
1691;SDS011;843;52.054;8.552;2022-10-22T03:54:04;9.60;;;8.07;;
1691;SDS011;843;52.054;8.552;2022-10-22T03:56:31;10.20;;;7.97;;
1691;SDS011;843;52.054;8.552;2022-10-22T03:58:58;9.53;;;8.53;;
1691;SDS011;843;52.054;8.552;2022-10-22T04:01:26;11.47;;;7.80;;
1691;SDS011;843;52.054;8.552;2022-10-22T04:03:54;11.97;;;7.63;;
1691;SDS011;843;52.054;8.552;2022-10-22T04:06:21;9.50;;;8.07;;
1691;SDS011;843;52.054;8.552;2022-10-22T04:08:48;10.67;;;7.70;;
1691;SDS011;843;52.054;8.552;2022-10-22T04:11:15;12.00;;;8.33;;
1691;SDS011;843;52.054;8.552;2022-10-22T04:13:42;11.70;;;8.53;;
1691;SDS011;843;52.054;8.552;2022-10-22T04:16:09;9.27;;;8.37;;
1691;SDS011;843;52.054;8.552;2022-10-22T04:18:37;9.47;;;7.90;;
1691;SDS011;843;52.054;8.552;2022-10-22T04:21:05;13.50;;;8.50;;
1691;SDS011;843;52.054;8.552;2022-10-22T04:23:32;8.60;;;7.70;;
1691;SDS011;843;52.054;8.552;2022-10-22T04:25:59;10.33;;;8.80;;
1691;SDS011;843;52.054;8.552;2022-10-22T04:28:28;9.23;;;7.80;;
1691;SDS011;843;52.054;8.552;2022-10-22T04:30:55;11.27;;;9.03;;
1691;SDS011;843;52.054;8.552;2022-10-22T04:33:22;10.63;;;9.43;;
1691;SDS011;843;52.054;8.552;2022-10-22T04:35:48;13.07;;;9.90;;
1691;SDS011;843;52.054;8.552;2022-10-22T04:38:16;10.40;;;8.80;;
1691;SDS011;843;52.054;8.552;2022-10-22T04:40:43;11.93;;;10.73;;
1691;SDS011;843;52.054;8.552;2022-10-22T04:43:09;13.10;;;9.50;;
1691;SDS011;843;52.054;8.552;2022-10-22T04:45:36;11.23;;;9.20;;
1691;SDS011;843;52.054;8.552;2022-10-22T04:48:02;11.00;;;9.17;;
1691;SDS011;843;52.054;8.552;2022-10-22T04:50:29;9.53;;;8.53;;
1691;SDS011;843;52.054;8.552;2022-10-22T04:52:56;16.10;;;9.73;;
1691;SDS011;843;52.054;8.552;2022-10-22T04:55:24;9.93;;;8.83;;
1691;SDS011;843;52.054;8.552;2022-10-22T04:57:50;13.37;;;10.77;;
1691;SDS011;843;52.054;8.552;2022-10-22T05:00:17;13.47;;;9.87;;
1691;SDS011;843;52.054;8.552;2022-10-22T05:02:47;13.43;;;10.37;;
1691;SDS011;843;52.054;8.552;2022-10-22T05:05:14;20.53;;;15.33;;
1691;SDS011;843;52.054;8.552;2022-10-22T05:07:41;12.53;;;11.13;;
1691;SDS011;843;52.054;8.552;2022-10-22T05:10:08;15.13;;;13.40;;
1691;SDS011;843;52.054;8.552;2022-10-22T05:12:36;14.30;;;10.10;;
1691;SDS011;843;52.054;8.552;2022-10-22T05:15:03;12.00;;;10.47;;
1691;SDS011;843;52.054;8.552;2022-10-22T05:17:30;12.13;;;10.40;;
1691;SDS011;843;52.054;8.552;2022-10-22T05:19:56;11.40;;;8.80;;
1691;SDS011;843;52.054;8.552;2022-10-22T05:22:23;10.93;;;9.37;;
1691;SDS011;843;52.054;8.552;2022-10-22T05:24:49;14.83;;;10.97;;
1691;SDS011;843;52.054;8.552;2022-10-22T05:27:16;11.23;;;9.70;;
1691;SDS011;843;52.054;8.552;2022-10-22T05:29:44;14.30;;;10.63;;
1691;SDS011;843;52.054;8.552;2022-10-22T05:32:10;16.90;;;11.17;;
1691;SDS011;843;52.054;8.552;2022-10-22T05:34:37;14.20;;;11.50;;
1691;SDS011;843;52.054;8.552;2022-10-22T05:37:04;13.53;;;11.00;;
1691;SDS011;843;52.054;8.552;2022-10-22T05:39:30;15.60;;;10.40;;
1691;SDS011;843;52.054;8.552;2022-10-22T05:42:00;12.13;;;10.43;;
1691;SDS011;843;52.054;8.552;2022-10-22T05:44:27;12.03;;;9.83;;
1691;SDS011;843;52.054;8.552;2022-10-22T05:46:55;13.97;;;9.87;;
1691;SDS011;843;52.054;8.552;2022-10-22T05:49:21;15.23;;;10.77;;
1691;SDS011;843;52.054;8.552;2022-10-22T05:51:48;15.90;;;11.40;;
1691;SDS011;843;52.054;8.552;2022-10-22T05:54:15;17.73;;;13.47;;
1691;SDS011;843;52.054;8.552;2022-10-22T05:56:43;14.60;;;10.60;;
1691;SDS011;843;52.054;8.552;2022-10-22T05:59:10;13.10;;;11.37;;
1691;SDS011;843;52.054;8.552;2022-10-22T06:01:43;14.17;;;11.27;;
1691;SDS011;843;52.054;8.552;2022-10-22T06:04:11;12.97;;;11.67;;
1691;SDS011;843;52.054;8.552;2022-10-22T06:06:38;15.10;;;11.07;;
1691;SDS011;843;52.054;8.552;2022-10-22T06:09:08;15.27;;;10.60;;
1691;SDS011;843;52.054;8.552;2022-10-22T06:11:38;13.30;;;10.00;;
1691;SDS011;843;52.054;8.552;2022-10-22T06:14:05;12.77;;;9.93;;
1691;SDS011;843;52.054;8.552;2022-10-22T06:16:31;15.10;;;10.40;;
1691;SDS011;843;52.054;8.552;2022-10-22T06:18:58;12.57;;;9.20;;
1691;SDS011;843;52.054;8.552;2022-10-22T06:21:27;12.93;;;10.47;;
1691;SDS011;843;52.054;8.552;2022-10-22T06:23:54;12.67;;;10.47;;
1691;SDS011;843;52.054;8.552;2022-10-22T06:26:21;12.53;;;9.00;;
1691;SDS011;843;52.054;8.552;2022-10-22T06:28:48;14.73;;;10.97;;
1691;SDS011;843;52.054;8.552;2022-10-22T06:31:15;15.30;;;11.20;;
1691;SDS011;843;52.054;8.552;2022-10-22T06:33:41;12.10;;;9.13;;
1691;SDS011;843;52.054;8.552;2022-10-22T06:36:09;12.23;;;8.90;;
1691;SDS011;843;52.054;8.552;2022-10-22T06:38:37;17.37;;;12.43;;
1691;SDS011;843;52.054;8.552;2022-10-22T06:41:04;11.30;;;9.37;;
1691;SDS011;843;52.054;8.552;2022-10-22T06:43:32;12.73;;;10.80;;
1691;SDS011;843;52.054;8.552;2022-10-22T06:45:59;16.37;;;10.10;;
1691;SDS011;843;52.054;8.552;2022-10-22T06:48:27;14.70;;;9.67;;
1691;SDS011;843;52.054;8.552;2022-10-22T06:50:53;11.57;;;9.93;;
1691;SDS011;843;52.054;8.552;2022-10-22T06:53:20;12.27;;;10.20;;
1691;SDS011;843;52.054;8.552;2022-10-22T06:55:48;12.13;;;10.83;;
1691;SDS011;843;52.054;8.552;2022-10-22T06:58:15;12.60;;;10.80;;
1691;SDS011;843;52.054;8.552;2022-10-22T07:00:42;15.47;;;10.57;;
1691;SDS011;843;52.054;8.552;2022-10-22T07:03:10;10.90;;;9.80;;
1691;SDS011;843;52.054;8.552;2022-10-22T07:05:37;14.93;;;9.70;;
1691;SDS011;843;52.054;8.552;2022-10-22T07:08:04;10.67;;;9.30;;
1691;SDS011;843;52.054;8.552;2022-10-22T07:10:31;10.53;;;9.17;;
1691;SDS011;843;52.054;8.552;2022-10-22T07:12:59;8.87;;;8.00;;
1691;SDS011;843;52.054;8.552;2022-10-22T07:15:25;17.60;;;8.53;;
1691;SDS011;843;52.054;8.552;2022-10-22T07:17:52;11.80;;;8.57;;
1691;SDS011;843;52.054;8.552;2022-10-22T07:20:18;11.23;;;8.20;;
1691;SDS011;843;52.054;8.552;2022-10-22T07:22:45;11.07;;;7.87;;
1691;SDS011;843;52.054;8.552;2022-10-22T07:25:12;12.50;;;11.30;;
1691;SDS011;843;52.054;8.552;2022-10-22T07:27:38;8.87;;;7.80;;
1691;SDS011;843;52.054;8.552;2022-10-22T07:30:07;11.13;;;8.67;;
1691;SDS011;843;52.054;8.552;2022-10-22T07:32:34;10.33;;;9.20;;
1691;SDS011;843;52.054;8.552;2022-10-22T07:35:01;7.00;;;5.27;;
1691;SDS011;843;52.054;8.552;2022-10-22T07:37:28;9.83;;;5.00;;
1691;SDS011;843;52.054;8.552;2022-10-22T07:39:55;7.40;;;4.63;;
1691;SDS011;843;52.054;8.552;2022-10-22T07:42:21;7.97;;;4.43;;
1691;SDS011;843;52.054;8.552;2022-10-22T07:44:48;6.80;;;3.43;;
1691;SDS011;843;52.054;8.552;2022-10-22T07:47:16;7.03;;;4.57;;
1691;SDS011;843;52.054;8.552;2022-10-22T07:49:43;10.03;;;6.87;;
1691;SDS011;843;52.054;8.552;2022-10-22T07:52:09;4.50;;;4.10;;
1691;SDS011;843;52.054;8.552;2022-10-22T07:54:36;7.60;;;4.07;;
1691;SDS011;843;52.054;8.552;2022-10-22T07:57:03;7.63;;;3.90;;
1691;SDS011;843;52.054;8.552;2022-10-22T07:59:30;4.37;;;3.13;;
1691;SDS011;843;52.054;8.552;2022-10-22T08:01:56;6.60;;;3.93;;
1691;SDS011;843;52.054;8.552;2022-10-22T08:04:25;5.33;;;2.57;;
1691;SDS011;843;52.054;8.552;2022-10-22T08:06:52;3.07;;;2.27;;
1691;SDS011;843;52.054;8.552;2022-10-22T08:09:18;9.13;;;2.90;;
1691;SDS011;843;52.054;8.552;2022-10-22T08:11:45;4.07;;;2.60;;
1691;SDS011;843;52.054;8.552;2022-10-22T08:14:11;4.67;;;2.60;;
1691;SDS011;843;52.054;8.552;2022-10-22T08:16:38;9.67;;;2.80;;
1691;SDS011;843;52.054;8.552;2022-10-22T08:19:05;6.63;;;2.53;;
1691;SDS011;843;52.054;8.552;2022-10-22T08:21:33;6.57;;;2.60;;
1691;SDS011;843;52.054;8.552;2022-10-22T08:23:59;4.13;;;2.40;;
1691;SDS011;843;52.054;8.552;2022-10-22T08:26:26;4.53;;;2.93;;
1691;SDS011;843;52.054;8.552;2022-10-22T08:28:52;7.30;;;2.63;;
1691;SDS011;843;52.054;8.552;2022-10-22T08:31:19;6.30;;;2.90;;
1691;SDS011;843;52.054;8.552;2022-10-22T08:33:46;5.70;;;3.43;;
1691;SDS011;843;52.054;8.552;2022-10-22T08:36:12;6.27;;;2.70;;
1691;SDS011;843;52.054;8.552;2022-10-22T08:38:41;5.60;;;2.87;;
1691;SDS011;843;52.054;8.552;2022-10-22T08:41:09;6.27;;;2.63;;
1691;SDS011;843;52.054;8.552;2022-10-22T08:43:42;7.73;;;3.20;;
1691;SDS011;843;52.054;8.552;2022-10-22T08:46:27;5.00;;;2.87;;
1691;SDS011;843;52.054;8.552;2022-10-22T08:49:06;5.60;;;2.97;;
1691;SDS011;843;52.054;8.552;2022-10-22T08:51:35;4.70;;;2.60;;
1691;SDS011;843;52.054;8.552;2022-10-22T08:54:13;3.73;;;2.30;;
1691;SDS011;843;52.054;8.552;2022-10-22T08:56:46;6.77;;;2.90;;
1691;SDS011;843;52.054;8.552;2022-10-22T08:59:19;4.00;;;2.73;;
1691;SDS011;843;52.054;8.552;2022-10-22T09:01:49;6.73;;;3.20;;
1691;SDS011;843;52.054;8.552;2022-10-22T09:04:17;10.13;;;3.20;;
1691;SDS011;843;52.054;8.552;2022-10-22T09:06:49;5.90;;;3.10;;
1691;SDS011;843;52.054;8.552;2022-10-22T09:09:18;3.40;;;2.70;;
1691;SDS011;843;52.054;8.552;2022-10-22T09:11:46;5.13;;;3.13;;
1691;SDS011;843;52.054;8.552;2022-10-22T09:14:14;8.37;;;2.80;;
1691;SDS011;843;52.054;8.552;2022-10-22T09:16:47;10.30;;;3.40;;
1691;SDS011;843;52.054;8.552;2022-10-22T09:19:32;6.23;;;3.30;;
1691;SDS011;843;52.054;8.552;2022-10-22T09:22:03;7.53;;;3.30;;
1691;SDS011;843;52.054;8.552;2022-10-22T09:24:41;5.83;;;3.20;;
1691;SDS011;843;52.054;8.552;2022-10-22T09:27:10;5.83;;;3.00;;
1691;SDS011;843;52.054;8.552;2022-10-22T09:29:38;6.43;;;3.40;;
1691;SDS011;843;52.054;8.552;2022-10-22T09:32:05;11.40;;;3.17;;
1691;SDS011;843;52.054;8.552;2022-10-22T09:34:32;4.47;;;3.03;;
1691;SDS011;843;52.054;8.552;2022-10-22T09:36:59;6.27;;;3.27;;
1691;SDS011;843;52.054;8.552;2022-10-22T09:39:30;5.60;;;4.10;;
1691;SDS011;843;52.054;8.552;2022-10-22T09:41:59;6.50;;;3.60;;
1691;SDS011;843;52.054;8.552;2022-10-22T09:44:26;7.70;;;3.60;;
1691;SDS011;843;52.054;8.552;2022-10-22T09:46:53;7.67;;;3.70;;
1691;SDS011;843;52.054;8.552;2022-10-22T09:49:20;6.47;;;3.33;;
1691;SDS011;843;52.054;8.552;2022-10-22T09:51:52;5.93;;;3.90;;
1691;SDS011;843;52.054;8.552;2022-10-22T09:54:21;8.60;;;3.47;;
1691;SDS011;843;52.054;8.552;2022-10-22T09:56:53;5.00;;;3.60;;
1691;SDS011;843;52.054;8.552;2022-10-22T09:59:27;9.47;;;3.20;;
1691;SDS011;843;52.054;8.552;2022-10-22T10:01:55;9.70;;;3.70;;
1691;SDS011;843;52.054;8.552;2022-10-22T10:04:26;8.80;;;3.10;;
1691;SDS011;843;52.054;8.552;2022-10-22T10:06:54;6.33;;;3.47;;
1691;SDS011;843;52.054;8.552;2022-10-22T10:09:22;6.40;;;3.10;;
1691;SDS011;843;52.054;8.552;2022-10-22T10:11:51;9.77;;;3.20;;
1691;SDS011;843;52.054;8.552;2022-10-22T10:14:24;8.70;;;3.20;;
1691;SDS011;843;52.054;8.552;2022-10-22T10:16:57;11.30;;;3.00;;
1691;SDS011;843;52.054;8.552;2022-10-22T10:19:41;6.50;;;3.30;;
1691;SDS011;843;52.054;8.552;2022-10-22T10:22:18;10.50;;;4.00;;
1691;SDS011;843;52.054;8.552;2022-10-22T10:24:55;5.93;;;2.80;;
1691;SDS011;843;52.054;8.552;2022-10-22T10:27:52;6.10;;;2.60;;
1691;SDS011;843;52.054;8.552;2022-10-22T10:30:23;5.30;;;2.53;;
1691;SDS011;843;52.054;8.552;2022-10-22T10:32:54;4.90;;;3.13;;
1691;SDS011;843;52.054;8.552;2022-10-22T10:35:29;7.47;;;2.53;;
1691;SDS011;843;52.054;8.552;2022-10-22T10:38:03;8.83;;;2.70;;
1691;SDS011;843;52.054;8.552;2022-10-22T10:40:41;6.80;;;2.37;;
1691;SDS011;843;52.054;8.552;2022-10-22T10:43:12;6.67;;;2.17;;
1691;SDS011;843;52.054;8.552;2022-10-22T10:45:44;9.67;;;2.67;;
1691;SDS011;843;52.054;8.552;2022-10-22T10:48:22;8.47;;;2.53;;
1691;SDS011;843;52.054;8.552;2022-10-22T10:51:06;7.47;;;2.40;;
1691;SDS011;843;52.054;8.552;2022-10-22T10:53:43;10.30;;;2.40;;
1691;SDS011;843;52.054;8.552;2022-10-22T10:56:22;8.83;;;2.50;;
1691;SDS011;843;52.054;8.552;2022-10-22T10:58:58;5.73;;;2.70;;
1691;SDS011;843;52.054;8.552;2022-10-22T11:01:32;5.50;;;2.83;;
1691;SDS011;843;52.054;8.552;2022-10-22T11:04:20;5.10;;;2.40;;
1691;SDS011;843;52.054;8.552;2022-10-22T11:06:55;4.93;;;2.20;;
1691;SDS011;843;52.054;8.552;2022-10-22T11:09:24;3.90;;;2.20;;
1691;SDS011;843;52.054;8.552;2022-10-22T11:11:54;4.30;;;2.00;;
1691;SDS011;843;52.054;8.552;2022-10-22T11:14:25;6.67;;;2.73;;
1691;SDS011;843;52.054;8.552;2022-10-22T11:16:57;5.63;;;2.80;;
1691;SDS011;843;52.054;8.552;2022-10-22T11:19:26;8.83;;;3.20;;
1691;SDS011;843;52.054;8.552;2022-10-22T11:21:56;5.50;;;2.33;;
1691;SDS011;843;52.054;8.552;2022-10-22T11:24:26;6.57;;;2.30;;
1691;SDS011;843;52.054;8.552;2022-10-22T11:26:55;6.30;;;2.43;;
1691;SDS011;843;52.054;8.552;2022-10-22T11:29:24;5.20;;;2.30;;
1691;SDS011;843;52.054;8.552;2022-10-22T11:32:00;5.20;;;2.40;;
1691;SDS011;843;52.054;8.552;2022-10-22T11:34:29;7.20;;;2.70;;
1691;SDS011;843;52.054;8.552;2022-10-22T11:36:58;6.90;;;2.53;;
1691;SDS011;843;52.054;8.552;2022-10-22T11:39:26;5.33;;;3.03;;
1691;SDS011;843;52.054;8.552;2022-10-22T11:41:56;6.57;;;3.57;;
1691;SDS011;843;52.054;8.552;2022-10-22T11:44:25;5.77;;;2.90;;
1691;SDS011;843;52.054;8.552;2022-10-22T11:46:55;9.83;;;3.07;;
1691;SDS011;843;52.054;8.552;2022-10-22T11:49:24;12.40;;;3.37;;
1691;SDS011;843;52.054;8.552;2022-10-22T11:52:04;6.60;;;2.67;;
1691;SDS011;843;52.054;8.552;2022-10-22T11:54:39;4.30;;;2.40;;
1691;SDS011;843;52.054;8.552;2022-10-22T11:57:20;6.73;;;2.10;;
1691;SDS011;843;52.054;8.552;2022-10-22T11:59:49;6.50;;;2.30;;
1691;SDS011;843;52.054;8.552;2022-10-22T12:02:24;5.80;;;2.23;;
1691;SDS011;843;52.054;8.552;2022-10-22T12:08:24;3.50;;;2.03;;
1691;SDS011;843;52.054;8.552;2022-10-22T12:10:55;3.40;;;1.80;;
1691;SDS011;843;52.054;8.552;2022-10-22T12:13:26;4.30;;;1.83;;
1691;SDS011;843;52.054;8.552;2022-10-22T12:15:55;4.60;;;1.67;;
1691;SDS011;843;52.054;8.552;2022-10-22T12:18:23;6.40;;;2.20;;
1691;SDS011;843;52.054;8.552;2022-10-22T12:20:51;4.33;;;2.50;;
1691;SDS011;843;52.054;8.552;2022-10-22T12:23:25;7.57;;;3.00;;
1691;SDS011;843;52.054;8.552;2022-10-22T12:25:56;4.13;;;2.30;;
1691;SDS011;843;52.054;8.552;2022-10-22T12:28:23;5.63;;;1.90;;
1691;SDS011;843;52.054;8.552;2022-10-22T12:30:49;8.03;;;2.73;;
1691;SDS011;843;52.054;8.552;2022-10-22T12:33:17;6.13;;;2.30;;
1691;SDS011;843;52.054;8.552;2022-10-22T12:35:46;5.83;;;2.57;;
1691;SDS011;843;52.054;8.552;2022-10-22T12:38:17;8.03;;;2.77;;
1691;SDS011;843;52.054;8.552;2022-10-22T12:40:53;7.33;;;2.90;;
1691;SDS011;843;52.054;8.552;2022-10-22T12:43:23;3.73;;;2.60;;
1691;SDS011;843;52.054;8.552;2022-10-22T12:45:50;10.20;;;2.97;;
1691;SDS011;843;52.054;8.552;2022-10-22T12:48:18;6.17;;;2.23;;
1691;SDS011;843;52.054;8.552;2022-10-22T12:50:48;7.20;;;2.20;;
1691;SDS011;843;52.054;8.552;2022-10-22T12:53:17;7.03;;;2.40;;
1691;SDS011;843;52.054;8.552;2022-10-22T12:55:46;8.17;;;2.23;;
1691;SDS011;843;52.054;8.552;2022-10-22T12:58:17;9.60;;;2.50;;
1691;SDS011;843;52.054;8.552;2022-10-22T13:00:45;6.60;;;2.63;;
1691;SDS011;843;52.054;8.552;2022-10-22T13:03:19;9.00;;;2.10;;
1691;SDS011;843;52.054;8.552;2022-10-22T13:05:51;6.57;;;2.60;;
1691;SDS011;843;52.054;8.552;2022-10-22T13:08:19;5.50;;;2.33;;
1691;SDS011;843;52.054;8.552;2022-10-22T13:10:49;5.63;;;2.70;;
1691;SDS011;843;52.054;8.552;2022-10-22T13:13:30;3.50;;;1.60;;
1691;SDS011;843;52.054;8.552;2022-10-22T13:16:11;6.00;;;1.80;;
1691;SDS011;843;52.054;8.552;2022-10-22T13:18:39;4.80;;;1.73;;
1691;SDS011;843;52.054;8.552;2022-10-22T13:21:19;2.67;;;1.33;;
1691;SDS011;843;52.054;8.552;2022-10-22T13:23:50;3.83;;;1.50;;
1691;SDS011;843;52.054;8.552;2022-10-22T13:26:19;4.40;;;1.40;;
1691;SDS011;843;52.054;8.552;2022-10-22T13:28:50;5.33;;;1.80;;
1691;SDS011;843;52.054;8.552;2022-10-22T13:31:18;6.17;;;1.60;;
1691;SDS011;843;52.054;8.552;2022-10-22T13:33:49;6.17;;;1.60;;
1691;SDS011;843;52.054;8.552;2022-10-22T13:36:21;8.23;;;2.13;;
1691;SDS011;843;52.054;8.552;2022-10-22T13:38:48;4.73;;;1.80;;
1691;SDS011;843;52.054;8.552;2022-10-22T13:41:17;4.53;;;1.67;;
1691;SDS011;843;52.054;8.552;2022-10-22T13:43:46;4.77;;;1.70;;
1691;SDS011;843;52.054;8.552;2022-10-22T13:46:13;7.57;;;1.80;;
1691;SDS011;843;52.054;8.552;2022-10-22T13:48:40;8.83;;;2.00;;
1691;SDS011;843;52.054;8.552;2022-10-22T13:51:09;6.03;;;1.83;;
1691;SDS011;843;52.054;8.552;2022-10-22T13:53:39;8.03;;;2.00;;
1691;SDS011;843;52.054;8.552;2022-10-22T13:56:07;3.80;;;1.43;;
1691;SDS011;843;52.054;8.552;2022-10-22T13:58:38;5.27;;;1.70;;
1691;SDS011;843;52.054;8.552;2022-10-22T14:01:05;14.20;;;2.10;;
1691;SDS011;843;52.054;8.552;2022-10-22T14:03:40;6.63;;;2.50;;
1691;SDS011;843;52.054;8.552;2022-10-22T14:06:09;6.87;;;1.97;;
1691;SDS011;843;52.054;8.552;2022-10-22T14:08:37;6.40;;;2.00;;
1691;SDS011;843;52.054;8.552;2022-10-22T14:11:04;4.90;;;1.80;;
1691;SDS011;843;52.054;8.552;2022-10-22T14:13:30;12.60;;;2.80;;
1691;SDS011;843;52.054;8.552;2022-10-22T14:15:58;6.50;;;2.63;;
1691;SDS011;843;52.054;8.552;2022-10-22T14:18:25;6.90;;;2.40;;
1691;SDS011;843;52.054;8.552;2022-10-22T14:20:55;5.00;;;2.87;;
1691;SDS011;843;52.054;8.552;2022-10-22T14:23:24;3.50;;;1.60;;
1691;SDS011;843;52.054;8.552;2022-10-22T14:25:52;5.83;;;2.10;;
1691;SDS011;843;52.054;8.552;2022-10-22T14:28:19;5.60;;;2.23;;
1691;SDS011;843;52.054;8.552;2022-10-22T14:30:46;5.00;;;2.40;;
1691;SDS011;843;52.054;8.552;2022-10-22T14:33:14;4.97;;;2.40;;
1691;SDS011;843;52.054;8.552;2022-10-22T14:35:42;5.43;;;2.70;;
1691;SDS011;843;52.054;8.552;2022-10-22T14:38:09;6.97;;;2.90;;
1691;SDS011;843;52.054;8.552;2022-10-22T14:40:36;5.13;;;2.63;;
1691;SDS011;843;52.054;8.552;2022-10-22T14:43:05;6.70;;;2.97;;
1691;SDS011;843;52.054;8.552;2022-10-22T14:45:32;7.60;;;3.00;;
1691;SDS011;843;52.054;8.552;2022-10-22T14:47:59;8.90;;;2.60;;
1691;SDS011;843;52.054;8.552;2022-10-22T14:50:27;5.00;;;3.43;;
1691;SDS011;843;52.054;8.552;2022-10-22T14:52:54;9.07;;;3.03;;
1691;SDS011;843;52.054;8.552;2022-10-22T14:55:23;7.83;;;3.83;;
1691;SDS011;843;52.054;8.552;2022-10-22T14:57:51;5.20;;;2.90;;
1691;SDS011;843;52.054;8.552;2022-10-22T15:00:18;8.03;;;4.07;;
1691;SDS011;843;52.054;8.552;2022-10-22T15:02:46;5.73;;;3.57;;
1691;SDS011;843;52.054;8.552;2022-10-22T15:05:13;4.63;;;2.97;;
1691;SDS011;843;52.054;8.552;2022-10-22T15:07:42;8.23;;;2.93;;
1691;SDS011;843;52.054;8.552;2022-10-22T15:10:09;5.63;;;2.80;;
1691;SDS011;843;52.054;8.552;2022-10-22T15:12:36;6.03;;;3.33;;
1691;SDS011;843;52.054;8.552;2022-10-22T15:15:03;10.00;;;4.27;;
1691;SDS011;843;52.054;8.552;2022-10-22T15:17:30;5.00;;;3.30;;
1691;SDS011;843;52.054;8.552;2022-10-22T15:19:57;9.63;;;3.00;;
1691;SDS011;843;52.054;8.552;2022-10-22T15:22:28;11.07;;;3.40;;
1691;SDS011;843;52.054;8.552;2022-10-22T15:24:57;4.20;;;2.73;;
1691;SDS011;843;52.054;8.552;2022-10-22T15:27:23;4.63;;;2.50;;
1691;SDS011;843;52.054;8.552;2022-10-22T15:29:50;8.57;;;3.00;;
1691;SDS011;843;52.054;8.552;2022-10-22T15:32:17;12.50;;;2.40;;
1691;SDS011;843;52.054;8.552;2022-10-22T15:34:43;7.60;;;2.17;;
1691;SDS011;843;52.054;8.552;2022-10-22T15:37:11;6.67;;;2.30;;
1691;SDS011;843;52.054;8.552;2022-10-22T15:39:38;5.83;;;2.37;;
1691;SDS011;843;52.054;8.552;2022-10-22T15:42:07;5.93;;;1.80;;